Alice, Texas
Current Conditions -  °F | °C
As of 4:53 PM on Friday 31 Oct 2014 (Local Time) from KALI Reporting Station
Clear Clear  
Wind Chill: 81°   Ceiling: Unl
Heat Index: 81°   Visibility: 10mi
Dew Point: 48°   Wind: 13mph
Humidity: 31%   Direction: 30°NNE
Pressure: 30.16"   Gusts: NA
Location:  27.75°N, 98.06°W
Report Text: KALI 312153Z AUTO 03011KT 10SM CLR 27/09 A3016 RMK AO2 SLP209 T02720089 $
Loading
Personal Weather Stations






























Interactive Weather Map
Tropical Storm Tracking
New forecast layout! Learn more

10-Day Weather Forecast

Advertisements
Track Severe Weather on mobile